WEATHER DATA

YESTERDAY
Time Temp. Dewp. Hum. Wind dir Wind speed Wind gust Bar.
00:02 4.8 -3.3 54 0 0 1023
00:22 5 -3.1 54 0 0 1023
00:33 5 -3.1 54 0 0 1023
00:42 5 -3.1 54 0 0 1023.1
00:52 4.9 -3.2 54 0 0 1023.2
01:03 5 -3.1 54 0 0 1023.1
01:13 5.1 -3 54 0 0 1023.3
01:17 5.3 -2.9 54 58 1.1 2.5 1023.2
01:27 5.6 -2.6 54 5 0.3 1.1 1023.3
01:38 5.9 -2.4 54 14 0.3 1.1 1023.3
01:48 6.1 -2.2 54 11 0.3 2.5 1023.4
01:58 6.2 -2.1 54 14 0.3 1.1 1023.3
02:08 6.3 -2 54 354 0.3 2.2 1023.3
02:18 6.4 -2 54 326 0.3 1.7 1023.3
02:28 6.6 -2 53 315 0.3 1.7 1023.3
02:38 6.7 -1.9 53 270 0.3 1.7 1023.2
02:48 6.9 -1.8 53 270 0.3 2.8 1023.2
02:58 6.9 -1.8 53 270 0.3 2.8 1023
03:08 6.9 -1.8 53 270 0.3 2.8 1023
03:18 6.7 -1.9 53 270 0.3 1.4 1023.1
03:29 6.4 -2.2 53 270 0.3 1.7 1023
03:38 6.4 -2.2 53 270 0.3 1.7 1023
03:48 6 -2.5 53 270 0.3 1.4 1023
03:59 5.6 -2.8 53 323 0.3 1.1 1023.1
04:09 5.1 -3.3 53 270 0.3 1.4 1023
04:19 4.5 -3.8 53 270 0.3 1.1 1023.1
04:29 4.3 -3.9 53 315 0.3 1.1 1023.2
04:39 3.9 -4 54 270 0.3 0.8 1023.3
04:49 3.4 -4.4 54 270 0.3 1.1 1023.3
05:04 2.9 -4.9 54 305 0.3 1.1 1023.3
05:13 2.6 -5.1 54 315 0.3 0.8 1023.4
05:23 2.3 -5.4 54 315 0.3 0.8 1023.4
05:33 2.1 -5.5 54 270 0.3 1.1 1023.5
05:44 2 -5.6 54 315 0.3 0.8 1023.6
05:54 1.8 -5.6 55 270 0.3 0.8 1023.7
06:04 1.6 -5.7 55 0 0.8 1023.9
06:14 1.3 -6 55 270 0.3 1.1 1023.9
06:24 1.1 -6.1 55 270 0.3 0.8 1024
06:34 1 -6.2 55 270 0.3 0.8 1024
06:44 0.9 -6.3 55 0 0.3 1024.2
06:55 0.9 -6.3 55 315 0.3 0.8 1024.3
07:05 0.9 -6.3 55 0.3 0.8 1024.3
07:15 1 -6.2 55 305 0.3 0.8 1024.3
07:25 1.1 -5.9 56 306 0.3 0.8 1024.4
07:35 1.3 -5.8 56 0 0.8 1024.4
07:45 1.7 -5.4 56 55 0.3 0.8 1024.5
07:55 2.3 -4.9 56 90 0.3 0.8 1024.6
08:06 2.9 -4.4 56 50 0.3 0.8 1024.6
08:15 3.7 -3.8 56 90 0.3 0.8 1024.8
08:25 4.5 -3.1 56 90 0.8 1.4 1024.9
08:35 5.6 -2.2 56 77 0.8 1.7 1024.9
08:46 6.5 -1.7 55 79 0.8 1.7 1025
08:55 7.2 -1.1 55 90 0.3 1.4 1025.2
09:05 8 -0.4 55 90 0.3 1.1 1025.2
09:16 8.7 0.2 55 59 0.8 2.5 1025.3
09:26 9.2 0.4 54 70 0.8 2.2 1025.4
09:36 9.7 0.8 54 57 0.8 2.2 1025.5
09:46 10 1.1 54 62 0.8 2.2 1025.7
09:56 10.3 1.1 53 0 0.8 2.5 1025.7
10:06 10.7 1.5 53 350 0.8 3.1 1025.9
10:16 11.1 1.9 53 18 0.8 1.7 1025.9
10:26 11.5 2.3 53 18 0.8 1.7 1025.9
10:36 11.8 2.5 53 18 0.8 1.7 1026
10:46 12.1 2.8 53 0 0 1026
10:56 12.5 2.9 52 0 0 1025.9
11:07 12.8 3.2 52 0 0 1025.9
11:16 13 3.4 52 0 0 1025.7
11:26 13.2 3.6 52 0 0 1025.6
11:37 13.3 3.7 52 0 0 1025.6
11:47 13.5 3.8 52 0 0 1025.5
11:57 13.7 3.8 51 0 0 1025.4
12:07 13.9 3.9 51 0 0 1025.2
12:18 14.2 4.2 51 0 0 1025.2
12:27 14.3 4.3 51 0 0 1025
12:37 14.6 4.6 51 0 0 1024.9
12:56 14.8 4.8 51 18 0.8 1.7 1024.8
13:06 15 5 51 71 0.8 2.5 1024.7
13:17 15.2 5.1 51 57 1.1 3.1 1024.6
13:27 15.3 4.9 50 52 1.1 4.7 1024.4
13:36 15.5 5.1 50 90 0.8 2.5 1024.3
13:46 15.7 5.3 50 55 1.1 3.1 1024.2
13:57 15.9 5.5 50 90 0.8 2.8 1024.1
14:07 16.2 5.8 50 62 1.1 3.1 1024
14:16 16.4 6 50 73 1.4 3.9 1024
14:27 16.4 6 50 80 1.1 3.9 1023.8
14:37 16.5 6.1 50 61 1.1 2.5 1023.8
14:47 16.6 5.9 49 67 1.1 3.6 1023.6
14:57 16.7 5.9 49 66 0.8 2.2 1023.6
15:07 16.8 6 49 54 1.4 4.7 1023.6
15:17 16.8 6 49 58 1.1 2.8 1023.4
15:26 16.8 6 49 60 1.1 2.8 1023.4
15:37 16.9 6.1 49 54 1.1 2.8 1023.2
15:47 17 6.2 49 90 0.8 2.8 1023.2
15:57 17 5.9 48 51 1.4 3.6 1023.1
16:07 17 5.9 48 59 1.7 4.2 1023
16:17 16.9 5.8 48 69 1.1 2.2 1022.8
16:27 16.9 5.8 48 62 1.4 4.7 1022.8
16:37 16.9 5.8 48 55 1.1 3.6 1022.8
16:47 16.8 5.7 48 55 1.1 3.6 1022.8
16:57 16.6 5.6 48 55 1.1 3.6 1022.8
17:07 16.4 5.4 48 0 0 1022.6
17:18 16.3 5.3 48 0 0 1022.7
17:28 16.2 5.2 48 0 0 1022.6
17:38 16.1 5.1 48 0 0 1022.4
17:47 16 5 48 0 0 1022.6
17:58 15.9 4.9 48 0 0 1022.4
18:08 15.8 4.8 48 0 0 1022.4
18:18 15.6 4.3 47 0 0 1022.4
18:28 15.4 4.2 47 0 0 1022.4
18:38 15.2 4 47 0 0 1022.4
18:48 14.9 3.7 47 0 0 1022.4
18:58 14.7 3.5 47 0 0 1022.4
19:09 14.4 3.2 47 0 0 1022.4
19:19 14.1 3.3 48 0 0 1022.6
19:28 13.7 2.9 48 0 0 1022.7
19:39 13.3 2.5 48 0 0 1022.7
19:49 12.6 1.9 48 0 0 1022.7
19:59 11.8 1.2 48 0 0 1022.7
20:09 11 0.4 48 0 0 1022.9
20:19 10.4 0.2 49 0 0 1022.9
20:29 9.7 -0.4 49 0 0 1023
20:39 9.1 -0.9 49 0 0 1023
20:49 8.6 -1.3 49 0 0 1023
21:00 8.1 -1.5 50 0 0 1023
21:09 7.7 -1.8 50 0 0 1023
21:19 7.3 -2.1 50 0 0 1023
21:30 6.9 -2.5 50 0 0 1023
21:40 6.5 -2.8 50 0 0 1023
21:50 6.3 -2.7 51 0 0 1023
22:00 6 -3 51 0 0 1023
22:10 5.8 -3.1 51 0 0 1023
22:20 5.5 -3.4 51 0 0 1022.9
22:30 5.3 -3.6 51 0 0 1022.9
22:41 5.1 -3.7 51 0 0 1022.9
22:50 4.9 -3.7 52 0 0 1022.9
23:00 4.8 -3.7 52 0 0 1022.9
23:16 4.5 -4 52 55 1.1 3.6 1023
23:27 4.3 -4.1 52 308 0.3 1.1 1023
23:37 4.2 -4.2 52 308 0.3 1.1 1023
23:47 4 -4.4 52 308 0.3 1.1 1022.9
23:57 3.9 -4.5 52 0 0 1023

DAY STATISTIC

2020-04-05
TEMPERATURE
AVERAGE
9.3
HIGH
17.0
15:47
LOW
0.9
06:44
PRESSURE
AVERAGE
1023.7
HIGH
1026.0
10:36
LOW
1022.4
17:38
DEWPOINT
AVERAGE
0.1
HIGH
6.2
15:47
LOW
-6.3
06:44
HUMIDITY
AVERAGE
52
HIGH
56
07:25
LOW
47
18:18
WIND SPEED
AVERAGE
0.4
HIGH
1.7
16:07
WIND GUST
AVERAGE
1.2
HIGH
4.7
13:27
WIND DIRECTION
PREVAILING
NE
28.2%
N
12.9
NE
28.2
E
17.6
SE
0.0
S
0.0
SW
0.0
W
20.0
NW
16.5
TEMPERATURE (°C)
LOW
0.9
HIGH
17.0
AVERAGE
9.3
PRESSURE (hpa)
LOW
1022.4
HIGH
1026.0
AVERAGE
1023.7
DEVICE